Fair Play, California
Current Conditions -  °F | °C
As of 11:55 AM on Wednesday 17 Dec 2014 (Local Time) from KPVF Reporting Station
Overcast Overcast  
Wind Chill: 37°   Ceiling: 200
Heat Index: 43°   Visibility: 0mi
Dew Point: 43°   Wind: 9mph
Humidity: 100%   Direction: 180°S
Pressure: 30.05"   Gusts: NA
Location:  38.6018°N, 120.509°W
Report Text: KPVF 171955Z AUTO 18008KT M1/4SM OVC002 06/06 A3005 RMK AO1 P0008
Loading
Personal Weather Stations






























Interactive Weather Map New forecast layout! Learn more

10-Day Weather Forecast

Advertisements
Track Severe Weather on mobile